Rupert, Vermont
Current Conditions -  °F | °C
As of 5:53 PM on Wednesday 17 Dec 2014 (Local Time) from KGFL Reporting Station
Light Rain Light Rain  
Wind Chill: 35°   Ceiling: 6500
Heat Index: 40°   Visibility: 10mi
Dew Point: 34°   Wind: 7mph
Humidity: 79%   Direction: 230°SW
Pressure: 29.8"   Gusts: NA
Location:  43.26°N, 73.22°W
Report Text: KGFL 172253Z AUTO 23006KT 10SM -RA OVC065 04/01 A2980 RMK AO2 RAB47 SLP097 P0000 T00440011
Loading
Personal Weather Stations






























Interactive Weather Map New forecast layout! Learn more

10-Day Weather Forecast

Advertisements
Track Severe Weather on mobile